Grandfather, North Carolina
Current Conditions -  °F | °C
As of 1:55 PM on Tuesday 27 Jan 2015 (Local Time) from KTNB Reporting Station
Overcast Overcast  
Wind Chill: 16°   Ceiling: 2200
Heat Index: 27°   Visibility: 10mi
Dew Point: 17°   Wind: 13mph
Humidity: 68%   Direction: 310°NW
Pressure: 29.78"   Gusts: 25mph
Location:  36.1797°N, 81.8424°W
Report Text: KTNB 271855Z AUTO 31011G22KT 10SM OVC022 M03/M08 A2978 RMK AO2 T10301081
Loading
Personal Weather Stations






























Interactive Weather Map New forecast layout! Learn more

10-Day Weather Forecast

Advertisements
Track Severe Weather on mobile